Time;durP1;ratioP1;P1;durP2;ratioP2;P2;SDS_P1;SDS_P2;PMS_P1;PMS_P2;Temp;Humidity;BMP_temperature;BMP_pressure;BME280_temperature;BME280_humidity;BME280_pressure;Samples;Min_cycle;Max_cycle;Signal;HPM_P1;HPM_P2
2023/05/08 07:01:27;;;;;;;0.50;0.50;;;14.20;99.90;17.00;101814.00;;;;6278490;22;20170;-66
2023/05/08 07:04:02;;;;;;;16.93;4.43;;;14.30;99.90;17.60;101898.00;;;;6251605;22;20193;-66
2023/05/08 07:06:37;;;;;;;7.30;5.60;;;14.40;99.90;17.40;101875.00;;;;6278290;22;20570;-66
2023/05/08 07:09:03;;;;;;;3.50;3.30;;;14.40;99.90;18.10;101899.00;;;;6251424;22;20165;-66
2023/05/08 07:11:40;;;;;;;1.07;1.07;;;14.70;99.90;17.80;101891.00;;;;6225705;22;20184;-66
2023/05/08 07:14:12;;;;;;;0.20;0.20;;;14.60;99.90;18.60;101891.00;;;;6251608;22;20158;-66
2023/05/08 07:16:49;;;;;;;7.90;2.80;;;15.10;99.90;17.10;101877.00;;;;6251195;22;20193;-66
2023/05/08 07:19:18;;;;;;;0.50;0.50;;;14.70;99.90;18.70;101875.00;;;;6278239;22;20148;-66
2023/05/08 07:21:50;;;;;;;0.20;0.20;;;15.00;99.90;19.30;101887.00;;;;6251044;22;20175;-66
2023/05/08 07:24:16;;;;;;;3.17;2.50;;;15.50;99.90;18.30;101882.00;;;;6278353;22;20143;-66
2023/05/08 07:26:47;;;;;;;0.50;0.50;;;15.40;99.90;17.60;101879.00;;;;6226035;22;20154;-66
2023/05/08 07:29:16;;;;;;;1.47;1.47;;;15.10;99.90;18.90;101894.00;;;;6225201;22;20178;-66
2023/05/08 07:31:51;;;;;;;0.30;0.30;;;15.40;99.90;18.80;101894.00;;;;6251240;22;20152;-66
2023/05/08 07:34:25;;;;;;;1.07;1.07;;;15.50;99.90;18.00;101879.00;;;;6251313;22;20178;-66
2023/05/08 07:36:57;;;;;;;4.13;1.60;;;15.30;99.90;18.10;101843.00;;;;6251017;22;20139;-66
2023/05/08 07:39:34;;;;;;;0.20;0.20;;;15.40;99.90;19.40;101894.00;;;;6278179;22;20198;-64
2023/05/08 07:42:00;;;;;;;2.30;2.20;;;15.70;99.90;18.50;101843.00;;;;6277918;22;20164;-66
2023/05/08 07:44:44;;;;;;;0.97;0.97;;;15.70;99.90;18.10;101838.00;;;;6278123;22;20195;-66
2023/05/08 07:47:13;;;;;;;5.43;2.77;;;15.60;99.90;16.80;101888.00;;;;6229554;22;20195;-66
2023/05/08 07:49:53;;;;;;;0.60;0.60;;;15.00;99.90;17.90;101894.00;;;;6278001;22;20144;-66
2023/05/08 07:52:42;;;;;;;0.20;0.20;;;15.10;99.90;18.90;101822.00;;;;6225060;22;20167;-66
2023/05/08 07:55:17;;;;;;;2.17;1.47;;;15.50;99.90;19.20;101901.00;;;;6250750;22;20158;-66
2023/05/08 07:57:57;;;;;;;6.90;5.30;;;15.90;99.90;18.10;101889.00;;;;6251173;22;20144;-66
2023/05/08 08:00:39;;;;;;;2.10;1.97;;;15.50;99.90;18.50;101880.00;;;;6265117;22;20215;-66
2023/05/08 08:03:23;;;;;;;3.90;3.67;;;15.80;99.90;19.70;101833.00;;;;6276505;22;20168;-66
2023/05/08 08:05:52;;;;;;;0.77;0.77;;;16.30;99.90;19.70;101839.00;;;;6276434;22;20156;-65
2023/05/08 08:08:32;;;;;;;0.53;0.53;;;16.50;99.90;19.70;101844.00;;;;6276059;22;20181;-66
2023/05/08 08:11:16;;;;;;;0.63;0.63;;;16.50;99.90;20.40;101900.00;;;;6276373;22;20142;-66
2023/05/08 08:13:48;;;;;;;4.27;1.27;;;16.80;99.90;21.40;101940.00;;;;6252617;22;20186;-66
2023/05/08 08:16:17;;;;;;;19.80;7.30;;;17.40;99.90;19.60;101906.00;;;;6276718;22;20142;-65
2023/05/08 08:18:51;;;;;;;4.07;2.90;;;16.90;99.90;18.30;101908.00;;;;6277622;22;20134;-66
2023/05/08 08:21:30;;;;;;;0.27;0.27;;;16.30;99.90;17.90;101894.00;;;;6276411;22;20476;-65
2023/05/08 08:24:01;;;;;;;0.67;0.67;;;15.80;99.90;19.60;101890.00;;;;6277420;22;20184;-65
2023/05/08 08:26:39;;;;;;;3.50;3.30;;;16.10;99.90;19.20;101896.00;;;;6275782;22;20165;-66
2023/05/08 08:29:16;;;;;;;5.30;2.03;;;16.10;99.90;18.60;101893.00;;;;6250499;22;20165;-66
2023/05/08 08:31:46;;;;;;;2.53;2.43;;;16.10;99.90;20.30;101909.00;;;;6276410;22;20464;-66
2023/05/08 08:34:23;;;;;;;11.03;1.53;;;16.40;99.90;19.80;101915.00;;;;6250709;22;20159;-66
2023/05/08 08:37:01;;;;;;;0.73;0.73;;;16.70;99.90;20.70;101929.00;;;;6275715;22;20139;-66
2023/05/08 08:39:33;;;;;;;1.50;1.40;;;17.20;99.90;21.70;101948.00;;;;6277496;22;20190;-66
2023/05/08 08:42:11;;;;;;;0.68;0.68;;;17.70;99.90;22.70;101957.00;;;;6276256;22;20176;-67
2023/05/08 08:45:00;;;;;;;2.47;2.38;;;18.40;99.90;21.00;101881.00;;;;6276224;22;20153;-65
2023/05/08 08:47:41;;;;;;;4.00;1.03;;;17.80;99.90;19.00;101913.00;;;;6159454;23;20162;-65
2023/05/08 08:50:14;;;;;;;1.30;1.23;;;16.80;99.90;20.80;101924.00;;;;6246165;22;20718;-65
2023/05/08 08:53:07;;;;;;;11.20;2.63;;;17.10;99.90;20.50;101947.00;;;;6251368;22;20496;-65
2023/05/08 08:56:00;;;;;;;0.57;0.57;;;17.30;99.90;18.70;101916.00;;;;6261075;22;20161;-65
2023/05/08 08:58:36;;;;;;;0.80;0.80;;;16.70;99.90;18.10;101904.00;;;;6276277;22;20160;-65
2023/05/08 09:01:18;;;;;;;5.60;3.53;;;16.20;99.90;18.70;101836.00;;;;6275335;22;20206;-65
2023/05/08 09:03:50;;;;;;;0.20;0.20;;;16.40;99.90;20.60;101920.00;;;;6276019;22;20166;-66
2023/05/08 09:06:23;;;;;;;1.90;1.90;;;16.70;99.90;21.20;101924.00;;;;6250859;22;20156;-66
2023/05/08 09:09:11;;;;;;;0.67;0.67;;;17.20;99.90;20.80;101926.00;;;;6275982;22;20139;-65
2023/05/08 09:11:54;;;;;;;0.83;0.83;;;17.30;99.90;21.90;101944.00;;;;6275622;22;20152;-66
2023/05/08 09:14:24;;;;;;;16.00;2.03;;;17.70;99.90;21.40;101961.00;;;;6277214;22;20281;-66
2023/05/08 09:16:56;;;;;;;5.68;5.13;;;17.90;99.90;21.50;101938.00;;;;6275114;22;20159;-66
2023/05/08 09:19:25;;;;;;;0.20;0.20;;;17.80;99.90;22.10;101947.00;;;;6277313;22;20180;-66
2023/05/08 09:22:09;;;;;;;0.40;0.40;;;18.10;99.90;22.70;101979.00;;;;6249899;22;20549;-64
2023/05/08 09:25:33;;;;;;;16.15;8.35;;;18.50;99.90;18.50;101919.00;;;;6275658;22;20156;-64
2023/05/08 09:28:37;;;;;;;2.70;2.47;;;16.90;99.90;20.00;101928.00;;;;6261856;22;20164;-64
2023/05/08 09:31:06;;;;;;;1.90;1.10;;;16.90;99.90;20.30;101925.00;;;;6250201;22;20163;-65
2023/05/08 09:33:55;;;;;;;0.77;0.77;;;16.90;99.90;22.00;101941.00;;;;6277026;22;20152;-65
2023/05/08 09:36:27;;;;;;;8.87;6.03;;;17.70;99.90;18.40;101905.00;;;;6232475;22;20163;-64
2023/05/08 09:39:02;;;;;;;0.10;0.10;;;16.60;99.90;19.10;101898.00;;;;6275772;22;20143;-64
2023/05/08 09:41:34;;;;;;;0.20;0.20;;;16.30;99.90;19.50;101907.00;;;;6275584;22;20589;-65
2023/05/08 09:44:06;;;;;;;0.30;0.30;;;16.60;99.90;19.80;101921.00;;;;6275724;22;20147;-65
2023/05/08 09:46:48;;;;;;;0.20;0.20;;;16.70;99.90;20.30;101932.00;;;;6275523;22;20639;-65
2023/05/08 09:49:24;;;;;;;3.07;2.40;;;16.90;99.90;20.20;101945.00;;;;6275445;22;20227;-64
2023/05/08 09:52:15;;;;;;;9.30;3.73;;;17.30;99.90;18.30;101899.00;;;;6275394;22;20633;-65
2023/05/08 09:55:05;;;;;;;1.07;1.07;;;16.40;99.90;18.90;101909.00;;;;6274940;22;20217;-64
2023/05/08 09:57:53;;;;;;;0.70;0.70;;;16.30;99.90;19.00;101916.00;;;;6275637;22;20202;-64
2023/05/08 10:00:32;;;;;;;0.20;0.20;;;16.30;99.90;19.60;101925.00;;;;6212326;23;20212;-65
2023/05/08 10:03:08;;;;;;;2.83;2.73;;;16.60;99.90;19.80;101917.00;;;;6272032;22;20583;-65
2023/05/08 10:05:37;;;;;;;0.20;0.20;;;16.60;99.90;20.10;101929.00;;;;6275053;22;20143;-65
2023/05/08 10:08:25;;;;;;;1.83;1.83;;;17.00;99.90;20.70;101955.00;;;;6250478;22;20155;-65
2023/05/08 10:10:52;;;;;;;0.80;0.80;;;17.30;99.90;21.60;101948.00;;;;6275412;22;20152;-65
2023/05/08 10:13:47;;;;;;;7.47;6.50;;;17.50;99.90;22.60;101978.00;;;;6249822;22;20156;-65
2023/05/08 10:16:17;;;;;;;1.17;1.10;;;18.30;99.90;22.60;101967.00;;;;6276737;22;20147;-65
2023/05/08 10:19:01;;;;;;;3.70;2.30;;;18.50;99.90;23.10;101964.00;;;;6249503;22;20160;-65
2023/05/08 10:33:38;;;;;;;0.93;0.93;;;16.40;99.90;19.40;101888.00;;;;5130904;27;21041;-65
2023/05/08 10:36:28;;;;;;;9.23;3.33;;;16.70;99.90;19.20;101899.00;;;;5109257;28;20198;-66
2023/05/08 10:39:05;;;;;;;0.40;0.40;;;16.80;99.90;19.10;101896.00;;;;5101899;28;20226;-66
2023/05/08 10:41:31;;;;;;;2.23;2.13;;;16.70;99.90;19.50;101893.00;;;;5100834;28;20341;-66
2023/05/08 10:44:13;;;;;;;1.55;1.55;;;16.90;99.90;20.40;101912.00;;;;5109567;28;20176;-66
2023/05/08 10:46:57;;;;;;;4.40;4.18;;;17.10;99.90;21.50;101934.00;;;;5109575;28;20209;-66
2023/05/08 10:49:50;;;;;;;2.13;1.65;;;17.80;99.90;20.30;101924.00;;;;5104894;28;20195;-65
2023/05/08 10:52:51;;;;;;;3.08;1.92;;;17.60;99.90;20.50;101863.00;;;;5100506;28;20285;-65
2023/05/08 10:56:06;;;;;;;1.60;1.55;;;17.60;99.90;20.50;101911.00;;;;5107377;28;20262;-65
2023/05/08 10:58:39;;;;;;;4.20;3.70;;;17.50;99.90;18.90;101897.00;;;;5095784;28;20226;-65
2023/05/08 11:01:13;;;;;;;2.00;1.23;;;17.20;99.90;18.80;101889.00;;;;5109183;28;20603;-65
2023/05/08 11:03:54;;;;;;;3.83;3.57;;;16.70;99.90;18.90;101893.00;;;;5106043;28;20202;-65
2023/05/08 11:06:57;;;;;;;0.93;0.80;;;16.70;99.90;19.30;101882.00;;;;5101685;28;20257;-65
2023/05/08 11:09:49;;;;;;;2.10;1.97;;;16.60;99.90;18.80;101891.00;;;;5047055;28;20228;-65
2023/05/08 11:12:35;;;;;;;0.20;0.20;;;16.70;99.90;21.50;101911.00;;;;5103573;28;20585;-66
2023/05/08 11:15:08;;;;;;;4.20;2.47;;;17.60;99.90;22.40;101928.00;;;;5095978;28;20633;-65
2023/05/08 11:17:53;;;;;;;0.60;0.60;;;18.30;99.90;22.70;101910.00;;;;5108571;28;20181;-65
2023/05/08 11:20:35;;;;;;;0.20;0.20;;;18.60;99.90;21.50;101923.00;;;;5109456;28;20263;-65
2023/05/08 11:23:35;;;;;;;6.03;3.60;;;18.60;99.90;18.80;101893.00;;;;5089180;28;20187;-65
2023/05/08 11:26:41;;;;;;;2.00;1.37;;;17.40;99.90;20.20;101890.00;;;;5102379;28;20263;-65
2023/05/08 11:29:16;;;;;;;0.30;0.30;;;17.20;99.90;20.90;101900.00;;;;5094555;28;20187;-65
2023/05/08 11:31:50;;;;;;;0.20;0.20;;;17.60;99.90;21.20;101900.00;;;;5097606;28;20232;-65
2023/05/08 11:34:41;;;;;;;0.20;0.20;;;17.70;99.90;22.10;101921.00;;;;5106851;28;20198;-65
2023/05/08 11:37:24;;;;;;;0.20;0.20;;;18.30;99.90;22.30;101920.00;;;;5109989;28;20176;-65
2023/05/08 11:40:29;;;;;;;1.38;1.38;;;18.50;99.90;20.90;101903.00;;;;5097096;28;20176;-65
2023/05/08 11:43:40;;;;;;;1.73;1.65;;;18.40;99.90;21.80;101921.00;;;;5098624;28;20178;-65
2023/05/08 11:46:17;;;;;;;0.43;0.40;;;18.50;99.90;22.30;101902.00;;;;5004212;28;20240;-67
2023/05/08 11:48:50;;;;;;;0.20;0.20;;;18.70;99.90;23.30;101910.00;;;;5094674;28;20191;-65
2023/05/08 11:51:20;;;;;;;0.10;0.10;;;19.20;99.90;24.10;101921.00;;;;5094816;28;20672;-65
2023/05/08 11:53:55;;;;;;;2.53;1.65;;;19.80;99.90;22.10;101828.00;;;;5094033;28;20182;-65
2023/05/08 11:56:30;;;;;;;0.20;0.20;;;19.50;99.90;22.00;101895.00;;;;5095027;28;20176;-65
2023/05/08 11:59:05;;;;;;;1.23;1.15;;;19.20;99.90;21.20;101892.00;;;;5094215;28;20191;-65
2023/05/08 12:01:43;;;;;;;0.10;0.10;;;18.60;99.90;22.10;101897.00;;;;5095055;28;20208;-65
2023/05/08 12:04:15;;;;;;;0.68;0.68;;;18.60;99.90;23.50;101912.00;;;;5094669;28;20172;-65
2023/05/08 12:07:05;;;;;;;0.20;0.20;;;19.10;99.90;22.40;101888.00;;;;5095574;28;20655;-65
2023/05/08 12:09:41;;;;;;;3.85;1.40;;;19.20;99.90;21.60;101889.00;;;;5083203;28;20642;-65
2023/05/08 12:12:16;;;;;;;0.10;0.10;;;18.80;99.90;23.30;101904.00;;;;5095566;28;20556;-65
2023/05/08 12:14:48;;;;;;;0.20;0.20;;;19.30;99.90;23.70;101879.00;;;;5094177;28;20172;-66
2023/05/08 12:17:24;;;;;;;0.63;0.50;;;20.00;99.90;21.50;101880.00;;;;5081887;28;20194;-65
2023/05/08 12:20:02;;;;;;;0.20;0.20;;;19.40;99.90;20.70;101861.00;;;;5094261;28;20252;-65
2023/05/08 12:22:37;;;;;;;1.50;1.42;;;18.60;99.90;21.70;101880.00;;;;5093128;28;20174;-65
2023/05/08 12:25:08;;;;;;;0.55;0.55;;;18.70;99.90;22.50;101893.00;;;;5091805;28;20605;-65
2023/05/08 12:27:49;;;;;;;0.10;0.10;;;19.00;99.90;22.80;101893.00;;;;5093306;28;20267;-65
2023/05/08 12:30:24;;;;;;;1.48;1.38;;;19.10;99.90;24.20;101840.00;;;;5080154;28;20177;-65
2023/05/08 12:33:10;;;;;;;3.38;3.05;;;19.90;99.90;21.20;101875.00;;;;5093903;28;20299;-65
2023/05/08 12:35:43;;;;;;;1.40;1.02;;;19.30;99.90;21.60;101883.00;;;;5092226;28;20177;-65
2023/05/08 12:38:32;;;;;;;1.30;1.20;;;19.00;99.90;21.30;101876.00;;;;5077000;28;20537;-65
2023/05/08 12:41:11;;;;;;;7.07;4.10;;;18.70;99.90;21.30;101875.00;;;;5079954;28;20643;-65
2023/05/08 12:44:06;;;;;;;2.55;1.35;;;18.70;99.90;20.50;101861.00;;;;5092646;28;20191;-65
2023/05/08 12:46:35;;;;;;;15.32;7.38;;;18.40;99.90;22.20;101883.00;;;;5087775;28;20197;-65
2023/05/08 12:49:10;;;;;;;5.78;4.65;;;18.70;99.90;22.40;101894.00;;;;5093356;28;20173;-65
2023/05/08 12:51:45;;;;;;;1.75;1.65;;;19.20;99.90;21.00;101852.00;;;;5094613;28;20200;-65
2023/05/08 12:54:17;;;;;;;4.75;2.90;;;18.90;99.90;20.60;101840.00;;;;5076361;28;20291;-65
2023/05/08 12:57:21;;;;;;;4.47;3.38;;;18.40;99.90;20.90;101824.00;;;;5082542;28;20185;-65
2023/05/08 12:59:52;;;;;;;4.18;3.85;;;18.40;99.90;21.90;101854.00;;;;5090867;28;20188;-65
2023/05/08 13:02:26;;;;;;;4.85;2.72;;;18.60;99.90;23.20;101880.00;;;;5091780;28;20276;-65
2023/05/08 13:04:57;;;;;;;0.43;0.43;;;19.30;99.90;23.80;101873.00;;;;5093871;28;20173;-65
2023/05/08 13:07:25;;;;;;;0.45;0.45;;;19.80;99.90;22.70;101871.00;;;;5092421;28;20222;-65
2023/05/08 13:10:03;;;;;;;1.25;1.15;;;20.10;99.90;22.00;101857.00;;;;5092472;28;20313;-65
2023/05/08 13:12:33;;;;;;;4.32;1.75;;;19.50;99.90;21.90;101850.00;;;;5094031;28;20196;-66
2023/05/08 13:14:59;;;;;;;1.75;1.67;;;19.20;99.90;23.20;101870.00;;;;5088168;28;20176;-65
2023/05/08 13:17:34;;;;;;;3.63;2.80;;;19.80;99.90;21.60;101839.00;;;;5086579;28;20188;-65
2023/05/08 13:20:08;;;;;;;8.45;5.90;;;19.40;99.90;19.90;101830.00;;;;5088896;28;20172;-65
2023/05/08 13:22:53;;;;;;;5.53;2.42;;;18.40;99.90;21.40;101832.00;;;;5092746;28;20189;-65
2023/05/08 13:25:30;;;;;;;10.77;3.95;;;18.40;99.90;21.50;101862.00;;;;5092754;28;20181;-66
2023/05/08 13:27:58;;;;;;;0.10;0.10;;;18.70;99.90;22.70;101882.00;;;;5092581;28;20169;-65
2023/05/08 13:30:27;;;;;;;1.08;0.73;;;19.30;99.90;21.40;101849.00;;;;5072288;28;20185;-70
2023/05/08 13:33:13;;;;;;;0.10;0.10;;;19.10;99.90;23.00;101871.00;;;;5097974;28;20212;-67
2023/05/08 13:35:42;;;;;;;1.55;1.08;;;19.10;99.90;22.40;101874.00;;;;5091918;28;20192;-66
2023/05/08 13:38:17;;;;;;;9.63;3.10;;;19.70;99.90;21.50;101847.00;;;;5076422;28;20196;-72
2023/05/08 13:40:46;;;;;;;1.95;1.85;;;19.10;99.90;22.20;101792.00;;;;5093760;28;20521;-68
2023/05/08 13:43:12;;;;;;;0.80;0.80;;;19.20;99.90;23.90;101813.00;;;;5084692;28;20180;-68
2023/05/08 13:45:58;;;;;;;0.70;0.70;;;19.80;99.90;24.70;101853.00;;;;5092211;28;20184;-68
2023/05/08 13:48:46;;;;;;;0.38;0.38;;;20.60;99.90;22.50;101841.00;;;;5075423;28;20645;-68
2023/05/08 13:51:17;;;;;;;3.08;2.05;;;20.10;99.90;22.40;101845.00;;;;5081224;28;20704;-68
2023/05/08 13:54:03;;;;;;;3.25;2.65;;;20.00;99.90;21.90;101835.00;;;;5092224;28;20545;-68
2023/05/08 13:56:34;;;;;;;5.30;3.15;;;19.50;99.90;22.80;101871.00;;;;5092217;28;20658;-69
2023/05/08 13:59:02;;;;;;;4.35;2.83;;;19.50;99.90;22.00;101848.00;;;;5092188;28;20661;-68
2023/05/08 14:01:28;;;;;;;3.30;3.08;;;19.00;99.90;23.40;101874.00;;;;5081722;28;20189;-68
2023/05/08 14:03:57;;;;;;;12.77;2.90;;;19.70;99.90;21.30;101850.00;;;;5092098;28;20191;-68
2023/05/08 14:06:29;;;;;;;0.25;0.25;;;19.10;99.90;21.10;101834.00;;;;5093171;28;20229;-68
2023/05/08 14:08:55;;;;;;;0.38;0.38;;;18.60;99.90;23.60;101862.00;;;;5075080;28;20654;-68
2023/05/08 14:11:21;;;;;;;0.38;0.38;;;19.40;99.90;21.50;101853.00;;;;5092902;28;20200;-68
2023/05/08 14:14:18;;;;;;;7.82;6.72;;;19.40;99.90;21.20;101845.00;;;;5090876;28;20446;-68
2023/05/08 14:16:46;;;;;;;2.58;1.20;;;18.80;99.90;22.10;101841.00;;;;5087274;28;20192;-68
2023/05/08 14:19:12;;;;;;;0.25;0.25;;;18.90;99.90;23.20;101865.00;;;;5092668;28;20578;-67
2023/05/08 14:21:56;;;;;;;6.05;4.05;;;19.40;99.90;20.40;101827.00;;;;5091889;28;20229;-68
2023/05/08 14:24:43;;;;;;;6.28;4.85;;;18.80;99.90;20.20;101833.00;;;;5093211;28;20259;-68
2023/05/08 14:27:25;;;;;;;6.93;3.55;;;18.20;99.90;21.40;101834.00;;;;5090452;28;20226;-69
2023/05/08 14:29:57;;;;;;;8.27;7.65;;;18.50;99.90;22.40;101808.00;;;;5070641;28;20247;-68
2023/05/08 14:32:25;;;;;;;2.53;1.95;;;18.90;99.90;22.70;101857.00;;;;5090140;28;20244;-68
2023/05/08 14:34:59;;;;;;;4.97;3.40;;;19.30;99.90;22.00;101808.00;;;;5088442;28;20184;-68
2023/05/08 14:37:48;;;;;;;0.30;0.30;;;19.00;99.90;23.30;101856.00;;;;5064322;28;20227;-68
2023/05/08 14:40:54;;;;;;;2.10;1.08;;;19.50;99.90;22.50;101861.00;;;;5013543;28;20272;-68
2023/05/08 14:43:23;;;;;;;6.93;5.25;;;19.60;99.90;22.50;101843.00;;;;5068645;28;20200;-68
2023/05/08 14:46:15;;;;;;;6.80;5.05;;;19.50;99.90;22.30;101833.00;;;;5092780;28;20642;-68
2023/05/08 14:48:47;;;;;;;1.05;1.05;;;19.50;99.90;22.40;101836.00;;;;5084563;28;20279;-68
2023/05/08 14:51:13;;;;;;;1.20;0.95;;;19.30;99.90;20.70;101822.00;;;;5089703;28;20264;-68
2023/05/08 14:53:42;;;;;;;1.52;0.40;;;18.50;99.90;22.40;101876.00;;;;5072877;28;20227;-69
2023/05/08 14:56:17;;;;;;;1.13;0.80;;;18.80;99.90;20.90;101841.00;;;;5086567;28;20230;-69
2023/05/08 14:58:54;;;;;;;3.08;2.88;;;18.50;99.90;20.00;101836.00;;;;5075329;28;20460;-69
2023/05/08 15:01:23;;;;;;;9.00;2.17;;;18.10;99.90;20.00;101850.00;;;;5080745;28;20191;-69
2023/05/08 15:03:52;;;;;;;2.77;2.50;;;17.80;99.90;19.70;101832.00;;;;5092529;28;20201;-68
2023/05/08 15:06:24;;;;;;;6.57;4.60;;;17.50;99.90;20.50;101845.00;;;;5092919;28;20218;-69
2023/05/08 15:08:56;;;;;;;5.53;4.13;;;17.50;99.90;21.10;101869.00;;;;5082659;28;20212;-69
2023/05/08 15:11:30;;;;;;;1.43;1.33;;;18.00;99.90;21.10;101859.00;;;;5074090;28;20177;-68
2023/05/08 15:14:04;;;;;;;0.43;0.43;;;17.80;99.90;21.40;101870.00;;;;5061873;28;20244;-68
2023/05/08 15:16:52;;;;;;;9.13;5.93;;;17.90;99.90;19.90;101859.00;;;;5076036;28;20189;-69
2023/05/08 15:19:29;;;;;;;13.87;4.90;;;17.80;99.90;20.20;101855.00;;;;5080226;28;20221;-68
2023/05/08 15:22:07;;;;;;;4.07;3.30;;;17.70;99.90;20.70;101855.00;;;;5094972;28;20195;-69
2023/05/08 15:24:52;;;;;;;7.60;5.83;;;18.00;99.90;19.60;101783.00;;;;5086480;28;20184;-69
2023/05/08 15:27:30;;;;;;;4.57;4.00;;;17.50;99.90;20.50;101870.00;;;;5081843;28;20673;-68
2023/05/08 15:30:11;;;;;;;1.63;1.45;;;17.70;99.90;19.40;101846.00;;;;5094600;28;20195;-68
2023/05/08 15:33:06;;;;;;;6.90;4.67;;;17.40;99.90;19.50;101784.00;;;;5076192;28;20231;-68
2023/05/08 15:35:45;;;;;;;13.68;3.05;;;17.20;99.90;19.20;101840.00;;;;5089761;28;20188;-68
2023/05/08 15:38:47;;;;;;;1.93;1.27;;;17.10;99.90;20.00;101855.00;;;;5077423;28;20183;-68
2023/05/08 15:41:22;;;;;;;1.13;0.87;;;17.30;99.90;20.10;101825.00;;;;5083467;28;20214;-68
2023/05/08 15:43:58;;;;;;;9.00;4.43;;;17.50;99.90;21.10;101874.00;;;;5096297;28;20175;-68
2023/05/08 15:46:50;;;;;;;3.67;3.37;;;18.00;99.90;20.70;101860.00;;;;5092525;28;20188;-69
2023/05/08 15:49:24;;;;;;;5.73;2.60;;;18.10;99.90;20.00;101859.00;;;;5094870;28;20241;-68
2023/05/08 15:52:11;;;;;;;9.47;5.80;;;17.80;99.90;21.00;101869.00;;;;5075165;28;20211;-68
2023/05/08 15:54:40;;;;;;;3.50;3.07;;;18.00;99.90;21.40;101870.00;;;;5084306;28;20222;-68
2023/05/08 15:57:25;;;;;;;5.90;2.47;;;18.20;99.90;20.40;101828.00;;;;5090547;28;20205;-69
2023/05/08 16:00:03;;;;;;;1.90;1.70;;;18.00;99.90;20.80;101870.00;;;;5075344;28;20259;-69
2023/05/08 16:02:55;;;;;;;3.97;3.30;;;18.00;99.90;19.60;101847.00;;;;5081234;28;20246;-69
2023/05/08 16:05:49;;;;;;;0.10;0.10;;;17.80;99.90;21.30;101847.00;;;;5057685;28;20199;-69
2023/05/08 16:08:48;;;;;;;4.10;3.70;;;17.90;99.90;20.30;101850.00;;;;5089387;28;20188;-69
2023/05/08 16:11:37;;;;;;;2.37;2.20;;;18.00;99.90;20.30;101857.00;;;;5085586;28;20189;-69
2023/05/08 16:14:26;;;;;;;0.70;0.70;;;17.90;99.90;20.50;101791.00;;;;5081853;28;20189;-69
2023/05/08 16:17:18;;;;;;;0.63;0.63;;;17.90;99.90;22.10;101855.00;;;;5082650;28;20892;-66
2023/05/08 16:20:13;;;;;;;0.38;0.38;;;18.20;99.90;22.60;101860.00;;;;5015378;28;20461;-65
2023/05/08 16:23:24;;;;;;;0.95;0.57;;;18.60;99.90;21.10;101836.00;;;;5092696;28;20191;-65
2023/05/08 16:26:08;;;;;;;7.18;3.15;;;18.70;99.90;21.50;101833.00;;;;5087832;28;20182;-65
2023/05/08 16:29:02;;;;;;;0.80;0.80;;;18.40;99.90;20.20;101806.00;;;;5085635;28;20201;-65
2023/05/08 16:32:06;;;;;;;1.13;1.13;;;17.90;99.90;21.10;101821.00;;;;5088518;28;20212;-66
2023/05/08 16:34:39;;;;;;;0.80;0.80;;;17.90;99.90;21.10;101809.00;;;;5082788;28;20192;-65
2023/05/08 16:37:48;;;;;;;0.10;0.10;;;18.00;99.90;22.80;101821.00;;;;5094158;28;20195;-64
2023/05/08 16:40:30;;;;;;;0.25;0.25;;;18.40;99.90;23.00;101758.00;;;;5093373;28;20204;-65
2023/05/08 16:42:59;;;;;;;0.30;0.30;;;18.90;99.90;21.40;101767.00;;;;5061370;28;20601;-65
2023/05/08 16:45:25;;;;;;;1.23;1.20;;;18.60;99.90;20.70;101779.00;;;;5069511;28;20609;-65
2023/05/08 16:47:56;;;;;;;0.10;0.10;;;18.10;99.90;22.60;101804.00;;;;5084743;28;20181;-66
2023/05/08 16:50:43;;;;;;;2.55;2.40;;;18.60;99.90;21.60;101781.00;;;;5076001;28;20714;-66
2023/05/08 16:53:26;;;;;;;1.20;1.08;;;18.60;99.90;20.90;101775.00;;;;5087407;28;20549;-66
2023/05/08 16:55:57;;;;;;;0.10;0.10;;;18.20;99.90;22.00;101802.00;;;;5086728;28;20188;-66
2023/05/08 16:58:41;;;;;;;0.43;0.43;;;18.50;99.90;21.50;101783.00;;;;5088913;28;20585;-66
2023/05/08 17:01:10;;;;;;;0.45;0.45;;;18.60;99.90;20.80;101774.00;;;;5086029;28;20192;-66
2023/05/08 17:03:36;;;;;;;0.32;0.32;;;17.90;99.90;20.30;101789.00;;;;5082121;28;20201;-66
2023/05/08 17:06:24;;;;;;;0.10;0.10;;;17.70;99.90;20.20;101775.00;;;;5090161;28;20713;-66
2023/05/08 17:08:56;;;;;;;1.37;1.37;;;17.60;99.90;20.30;101791.00;;;;5076440;28;20172;-66
2023/05/08 17:11:57;;;;;;;4.77;2.20;;;17.50;99.90;20.60;101802.00;;;;5063194;28;20177;-66
2023/05/08 17:14:43;;;;;;;0.90;0.90;;;17.90;99.90;19.50;101792.00;;;;5092050;28;20222;-66
2023/05/08 17:17:32;;;;;;;0.17;0.17;;;17.40;99.90;21.20;101788.00;;;;5085531;28;20176;-66
2023/05/08 17:20:01;;;;;;;0.10;0.10;;;17.70;99.90;21.10;101779.00;;;;5085475;28;20183;-66
2023/05/08 17:22:37;;;;;;;0.10;0.10;;;17.80;99.90;22.50;101797.00;;;;5090871;28;20188;-66
2023/05/08 17:25:46;;;;;;;0.63;0.63;;;18.20;99.90;21.20;101738.00;;;;5092930;28;20192;-66
2023/05/08 17:28:41;;;;;;;1.40;0.87;;;18.40;99.90;20.60;101752.00;;;;5073372;28;20184;-66
2023/05/08 17:31:42;;;;;;;0.22;0.22;;;18.10;99.90;22.40;101773.00;;;;5089743;28;20193;-67
2023/05/08 17:34:50;;;;;;;0.10;0.10;;;18.40;99.90;21.40;101756.00;;;;5089755;28;20172;-67
2023/05/08 17:37:41;;;;;;;0.85;0.68;;;18.10;99.90;22.00;101772.00;;;;5093842;28;20634;-67
2023/05/08 17:40:43;;;;;;;1.70;1.70;;;18.20;99.90;23.20;101770.00;;;;5084816;28;20272;-67
2023/05/08 17:44:12;;;;;;;0.10;0.10;;;18.80;99.90;22.50;101780.00;;;;5077153;28;20192;-67
2023/05/08 17:47:08;;;;;;;0.30;0.30;;;18.90;99.90;22.30;101775.00;;;;5093243;28;20677;-67
2023/05/08 17:49:51;;;;;;;0.10;0.10;;;18.70;99.90;21.80;101760.00;;;;5070997;28;20209;-67
2023/05/08 17:53:02;;;;;;;0.10;0.10;;;18.30;99.90;21.70;101777.00;;;;5086662;28;20283;-67
2023/05/08 17:56:07;;;;;;;0.93;0.88;;;18.50;99.90;21.20;101741.00;;;;5075202;28;20192;-67
2023/05/08 17:59:25;;;;;;;0.10;0.10;;;18.10;99.90;21.80;101775.00;;;;5089243;28;20577;-67
2023/05/08 18:02:19;;;;;;;0.10;0.10;;;18.10;99.90;21.80;101724.00;;;;5088757;28;20195;-67
2023/05/08 18:05:34;;;;;;;0.10;0.10;;;18.20;99.90;21.60;101775.00;;;;5087448;28;20631;-67
2023/05/08 18:08:43;;;;;;;0.10;0.10;;;18.10;99.90;22.30;101776.00;;;;5081397;28;20189;-67
2023/05/08 18:12:07;;;;;;;1.30;0.80;;;18.40;99.90;21.00;101768.00;;;;5073777;28;20514;-67
2023/05/08 18:15:31;;;;;;;0.23;0.23;;;18.30;99.90;22.20;101778.00;;;;5082947;28;20246;-67
2023/05/08 18:18:41;;;;;;;0.40;0.40;;;18.20;99.90;21.60;101778.00;;;;5071844;28;20547;-67
2023/05/08 18:25:35;;;;;;;0.20;0.20;;;18.40;99.90;21.60;101797.00;;;;5086970;28;20247;-67
2023/05/08 18:28:57;;;;;;;0.40;0.40;;;18.20;99.90;20.20;101768.00;;;;5085215;28;20172;-67
2023/05/08 18:32:00;;;;;;;0.20;0.20;;;17.90;99.90;20.90;101797.00;;;;5087788;28;20208;-67
2023/05/08 18:35:05;;;;;;;0.13;0.13;;;17.70;99.90;21.60;101800.00;;;;5089989;28;20658;-67
2023/05/08 18:37:58;;;;;;;0.20;0.20;;;17.70;99.90;21.20;101788.00;;;;5083496;28;20226;-67
2023/05/08 18:41:22;;;;;;;0.10;0.10;;;17.80;99.90;21.40;101811.00;;;;5080971;28;20201;-67
2023/05/08 18:44:34;;;;;;;2.37;2.27;;;17.60;99.90;19.90;101732.00;;;;5088594;28;20177;-67
2023/05/08 18:48:05;;;;;;;0.10;0.10;;;17.30;99.90;21.40;101798.00;;;;5070457;28;20526;-68
2023/05/08 18:51:16;;;;;;;0.83;0.83;;;17.60;99.90;20.90;101778.00;;;;5081884;28;20189;-67
2023/05/08 18:54:25;;;;;;;0.20;0.20;;;17.80;99.90;20.70;101784.00;;;;5090504;28;20699;-67
2023/05/08 18:57:37;;;;;;;0.83;0.60;;;17.50;99.90;21.20;101779.00;;;;5088443;28;20184;-68
2023/05/08 19:00:37;;;;;;;0.20;0.20;;;17.70;99.90;21.10;101772.00;;;;5088671;28;20199;-67
2023/05/08 19:03:43;;;;;;;0.10;0.10;;;17.50;99.90;21.20;101763.00;;;;5074633;28;20210;-68
2023/05/08 19:06:49;;;;;;;0.10;0.10;;;17.60;99.90;19.60;101748.00;;;;5094765;28;20183;-67
2023/05/08 19:10:02;;;;;;;0.10;0.10;;;17.40;99.90;20.20;101766.00;;;;5091102;28;20177;-67
2023/05/08 19:13:20;;;;;;;0.10;0.10;;;17.10;99.90;21.20;101781.00;;;;5090914;28;20213;-67